Time,TemperatureF,DewpointF,PressureIn,WindDirection,WindDirectionDegrees,WindSpeedMPH,WindSpeedGustMPH,Humidity,HourlyPrecipIn,Conditions,Clouds,dailyrainin,SoftwareType,DateUTC
2013-04-02 00:02:00,43.0,20.0,30.19,NNE,15,8.0,13.0,39,-99.99,,,-99.99,,2013-04-02 05:02:00,
2013-04-02 00:12:00,43.0,20.0,30.18,NE,35,7.0,12.0,40,-99.99,,,-99.99,,2013-04-02 05:12:00,
2013-04-02 00:22:00,43.0,20.0,30.18,NE,35,7.0,12.0,40,-99.99,,,-99.99,,2013-04-02 05:22:00,
2013-04-02 00:32:00,42.0,20.0,30.18,NE,50,12.0,15.0,41,-99.99,,,-99.99,,2013-04-02 05:32:00,
2013-04-02 00:42:00,42.0,20.0,30.19,NE,40,8.0,12.0,41,-99.99,,,-99.99,,2013-04-02 05:42:00,
2013-04-02 01:02:00,42.0,20.0,30.18,NE,45,8.0,12.0,41,-99.99,,,-99.99,,2013-04-02 06:02:00,
2013-04-02 01:12:00,42.0,20.0,30.18,NNE,30,12.0,16.0,42,-99.99,,,-99.99,,2013-04-02 06:12:00,
2013-04-02 01:22:00,42.0,20.0,30.18,NNE,30,12.0,16.0,42,-99.99,,,-99.99,,2013-04-02 06:22:00,
2013-04-02 01:32:00,41.0,21.0,30.17,NE,45,11.0,16.0,45,-99.99,,,-99.99,,2013-04-02 06:32:00,
2013-04-02 01:42:00,41.0,21.0,30.18,NE,55,13.0,17.0,44,-99.99,,,-99.99,,2013-04-02 06:42:00,
2013-04-02 01:52:00,41.0,21.0,30.18,NE,55,13.0,17.0,44,-99.99,,,-99.99,,2013-04-02 06:52:00,
2013-04-02 02:02:00,40.0,21.0,30.17,ENE,60,11.0,18.0,45,-99.99,,,-99.99,,2013-04-02 07:02:00,
2013-04-02 02:12:00,40.0,20.0,30.18,NE,45,12.0,18.0,44,-99.99,,,-99.99,,2013-04-02 07:12:00,
2013-04-02 02:22:00,40.0,20.0,30.18,NE,45,12.0,18.0,44,-99.99,,,-99.99,,2013-04-02 07:22:00,
2013-04-02 02:32:00,40.0,20.0,30.18,NE,45,11.0,16.0,45,-99.99,,,-99.99,,2013-04-02 07:32:00,
2013-04-02 02:42:00,40.0,19.0,30.18,NE,55,11.0,15.0,43,-99.99,,,-99.99,,2013-04-02 07:42:00,
2013-04-02 02:52:00,40.0,19.0,30.18,NE,55,11.0,15.0,43,-99.99,,,-99.99,,2013-04-02 07:52:00,
2013-04-02 03:02:00,40.0,20.0,30.18,ENE,65,8.0,15.0,44,-99.99,,,-99.99,,2013-04-02 08:02:00,
2013-04-02 03:13:00,40.0,19.0,30.18,ENE,65,6.0,14.0,43,-99.99,,,-99.99,,2013-04-02 08:13:00,
2013-04-02 03:22:00,40.0,19.0,30.18,ENE,65,6.0,14.0,43,-99.99,,,-99.99,,2013-04-02 08:22:00,
2013-04-02 03:32:00,40.0,18.0,30.19,East,80,8.0,11.0,42,-99.99,,,-99.99,,2013-04-02 08:32:00,
2013-04-02 03:42:00,40.0,19.0,30.18,ENE,65,7.0,13.0,44,-99.99,,,-99.99,,2013-04-02 08:42:00,
2013-04-02 03:52:00,40.0,19.0,30.18,ENE,65,7.0,13.0,44,-99.99,,,-99.99,,2013-04-02 08:52:00,
2013-04-02 04:02:00,39.0,18.0,30.19,ENE,70,7.0,11.0,42,-99.99,,,-99.99,,2013-04-02 09:02:00,
2013-04-02 04:12:00,39.0,19.0,30.19,ENE,65,7.0,9.0,44,-99.99,,,-99.99,,2013-04-02 09:12:00,
2013-04-02 04:22:00,39.0,19.0,30.19,ENE,65,7.0,9.0,44,-99.99,,,-99.99,,2013-04-02 09:22:00,
2013-04-02 04:32:00,38.0,19.0,30.18,ENE,75,6.0,8.0,46,-99.99,,,-99.99,,2013-04-02 09:32:00,
2013-04-02 04:43:00,38.0,19.0,30.18,ENE,75,6.0,9.0,45,-99.99,,,-99.99,,2013-04-02 09:43:00,
2013-04-02 04:52:00,38.0,19.0,30.18,ENE,75,6.0,9.0,45,-99.99,,,-99.99,,2013-04-02 09:52:00,
2013-04-02 05:03:00,38.0,19.0,30.19,NE,55,4.0,9.0,46,-99.99,,,-99.99,,2013-04-02 10:03:00,
2013-04-02 05:13:00,38.0,19.0,30.20,ENE,65,4.0,6.0,47,-99.99,,,-99.99,,2013-04-02 10:13:00,
2013-04-02 05:23:00,38.0,19.0,30.20,ENE,65,4.0,6.0,47,-99.99,,,-99.99,,2013-04-02 10:23:00,
2013-04-02 05:33:00,37.0,19.0,30.19,ENE,75,6.0,9.0,47,-99.99,,,-99.99,,2013-04-02 10:33:00,
2013-04-02 05:42:00,37.0,20.0,30.20,ENE,75,6.0,9.0,49,-99.99,,,-99.99,,2013-04-02 10:42:00,
2013-04-02 05:52:00,37.0,20.0,30.20,ENE,75,6.0,9.0,49,-99.99,,,-99.99,,2013-04-02 10:52:00,
2013-04-02 06:02:00,36.0,20.0,30.19,ENE,65,6.0,8.0,51,-99.99,,,-99.99,,2013-04-02 11:02:00,
2013-04-02 06:12:00,36.0,20.0,30.19,East,80,6.0,9.0,51,-99.99,,,-99.99,,2013-04-02 11:12:00,
2013-04-02 06:22:00,36.0,20.0,30.19,East,80,6.0,9.0,51,-99.99,,,-99.99,,2013-04-02 11:22:00,
2013-04-02 06:33:00,36.0,19.0,30.20,NE,55,7.0,10.0,51,-99.99,,,-99.99,,2013-04-02 11:33:00,
2013-04-02 06:43:00,36.0,19.0,30.20,ENE,65,7.0,10.0,51,-99.99,,,-99.99,,2013-04-02 11:43:00,
2013-04-02 06:52:00,36.0,19.0,30.20,ENE,65,7.0,10.0,51,-99.99,,,-99.99,,2013-04-02 11:52:00,
2013-04-02 07:02:00,36.0,19.0,30.21,ENE,70,8.0,11.0,51,-99.99,,,-99.99,,2013-04-02 12:02:00,
2013-04-02 07:12:00,36.0,20.0,30.21,ENE,75,6.0,11.0,52,-99.99,,,-99.99,,2013-04-02 12:12:00,
2013-04-02 07:23:00,36.0,20.0,30.21,ENE,75,6.0,11.0,52,-99.99,,,-99.99,,2013-04-02 12:23:00,
2013-04-02 07:32:00,35.0,19.0,30.22,ENE,60,9.0,13.0,51,-99.99,,,-99.99,,2013-04-02 12:32:00,
2013-04-02 07:42:00,35.0,19.0,30.22,ENE,65,8.0,11.0,51,-99.99,,,-99.99,,2013-04-02 12:42:00,
2013-04-02 07:52:00,35.0,19.0,30.22,ENE,65,8.0,11.0,51,-99.99,,,-99.99,,2013-04-02 12:52:00,
2013-04-02 08:00:00,35.0,19.0,30.24,East,80,6.0,9.0,52,-99.99,,,-99.99,,2013-04-02 13:00:00,
2013-04-02 08:02:00,35.0,19.0,30.23,East,90,7.0,13.0,52,-99.99,,,-99.99,,2013-04-02 13:02:00,
2013-04-02 08:12:00,35.0,19.0,30.24,East,85,6.0,13.0,51,-99.99,,,-99.99,,2013-04-02 13:12:00,
2013-04-02 08:22:00,35.0,19.0,30.24,East,85,6.0,13.0,51,-99.99,,,-99.99,,2013-04-02 13:22:00,
2013-04-02 08:33:00,35.0,19.0,30.25,ESE,115,6.0,10.0,51,-99.99,,,-99.99,,2013-04-02 13:33:00,
2013-04-02 08:42:00,35.0,19.0,30.24,East,80,6.0,9.0,52,-99.99,,,-99.99,,2013-04-02 13:42:00,
2013-04-02 08:52:00,35.0,19.0,30.24,East,80,6.0,9.0,52,-99.99,,,-99.99,,2013-04-02 13:52:00,
2013-04-02 09:12:00,35.0,19.0,30.23,East,85,8.0,13.0,52,-99.99,,,-99.99,,2013-04-02 14:12:00,
2013-04-02 09:23:00,35.0,19.0,30.23,East,85,8.0,13.0,52,-99.99,,,-99.99,,2013-04-02 14:23:00,
2013-04-02 09:32:00,35.0,20.0,30.24,East,95,8.0,13.0,53,-99.99,,,-99.99,,2013-04-02 14:32:00,
2013-04-02 09:42:00,35.0,20.0,30.24,East,95,5.0,16.0,53,-99.99,,,-99.99,,2013-04-02 14:42:00,
2013-04-02 09:52:00,35.0,20.0,30.24,East,95,5.0,16.0,53,-99.99,,,-99.99,,2013-04-02 14:52:00,
2013-04-02 10:00:00,35.0,22.0,30.25,SE,125,7.0,9.0,59,-99.99,,,-99.99,,2013-04-02 15:00:00,
2013-04-02 10:02:00,36.0,19.0,30.23,East,90,8.0,13.0,51,-99.99,,,-99.99,,2013-04-02 15:02:00,
2013-04-02 10:11:00,36.0,21.0,30.23,ENE,75,7.0,13.0,55,-99.99,,,-99.99,,2013-04-02 15:11:00,
2013-04-02 10:22:00,36.0,21.0,30.23,ENE,75,7.0,13.0,55,-99.99,,,-99.99,,2013-04-02 15:22:00,
2013-04-02 10:33:00,35.0,23.0,30.24,ESE,120,5.0,9.0,61,-99.99,,,-99.99,,2013-04-02 15:33:00,
2013-04-02 10:43:00,35.0,22.0,30.25,SE,125,7.0,9.0,59,-99.99,,,-99.99,,2013-04-02 15:43:00,
2013-04-02 10:55:00,35.0,22.0,30.25,SE,125,7.0,9.0,59,-99.99,,,-99.99,,2013-04-02 15:55:00,
2013-04-02 11:13:00,35.0,22.0,30.25,ESE,110,7.0,11.0,58,-99.99,,,-99.99,,2013-04-02 16:13:00,
2013-04-02 11:24:00,35.0,22.0,30.25,ESE,110,7.0,11.0,58,-99.99,,,-99.99,,2013-04-02 16:24:00,
2013-04-02 11:36:00,36.0,21.0,30.26,East,95,7.0,12.0,55,-99.99,,,-99.99,,2013-04-02 16:36:00,
2013-04-02 11:44:00,37.0,24.0,30.25,SSE,160,7.0,12.0,58,-99.99,,,-99.99,,2013-04-02 16:44:00,
2013-04-02 11:53:00,37.0,24.0,30.25,SSE,160,7.0,12.0,58,-99.99,,,-99.99,,2013-04-02 16:53:00,
2013-04-02 12:05:00,37.0,23.0,30.26,SE,135,8.0,13.0,56,-99.99,,,-99.99,,2013-04-02 17:05:00,
2013-04-02 12:13:00,37.0,22.0,30.26,ESE,105,6.0,11.0,53,-99.99,,,-99.99,,2013-04-02 17:13:00,
2013-04-02 12:24:00,37.0,22.0,30.26,ESE,105,6.0,11.0,53,-99.99,,,-99.99,,2013-04-02 17:24:00,
2013-04-02 12:34:00,37.0,20.0,30.26,SE,140,10.0,12.0,49,-99.99,,,-99.99,,2013-04-02 17:34:00,
2013-04-02 12:43:00,38.0,23.0,30.26,SSE,150,6.0,10.0,53,-99.99,,,-99.99,,2013-04-02 17:43:00,
2013-04-02 12:54:00,38.0,23.0,30.26,SSE,150,6.0,10.0,53,-99.99,,,-99.99,,2013-04-02 17:54:00,
2013-04-02 13:03:00,39.0,22.0,30.25,SE,145,6.0,10.0,50,-99.99,,,-99.99,,2013-04-02 18:03:00,
2013-04-02 13:12:00,38.0,21.0,30.25,ESE,110,8.0,11.0,48,-99.99,,,-99.99,,2013-04-02 18:12:00,
2013-04-02 13:23:00,38.0,21.0,30.25,ESE,110,8.0,11.0,48,-99.99,,,-99.99,,2013-04-02 18:23:00,
2013-04-02 13:34:00,39.0,22.0,30.25,East,90,7.0,10.0,51,-99.99,,,-99.99,,2013-04-02 18:34:00,
2013-04-02 13:43:00,39.0,20.0,30.24,ESE,105,7.0,11.0,46,-99.99,,,-99.99,,2013-04-02 18:43:00,
2013-04-02 13:54:00,39.0,20.0,30.24,ESE,105,7.0,11.0,46,-99.99,,,-99.99,,2013-04-02 18:54:00,
2013-04-02 14:03:00,40.0,22.0,30.25,SE,130,6.0,9.0,48,-99.99,,,-99.99,,2013-04-02 19:03:00,
2013-04-02 14:13:00,40.0,19.0,30.25,ESE,115,4.0,9.0,44,-99.99,,,-99.99,,2013-04-02 19:13:00,
2013-04-02 14:23:00,40.0,19.0,30.25,ESE,115,4.0,9.0,44,-99.99,,,-99.99,,2013-04-02 19:23:00,
2013-04-02 14:34:00,39.0,20.0,30.24,East,100,5.0,8.0,45,-99.99,,,-99.99,,2013-04-02 19:34:00,
2013-04-02 14:45:00,40.0,20.0,30.24,ENE,75,1.0,6.0,44,-99.99,,,-99.99,,2013-04-02 19:45:00,
2013-04-02 14:53:00,40.0,20.0,30.24,ENE,75,1.0,6.0,44,-99.99,,,-99.99,,2013-04-02 19:53:00,
2013-04-02 15:03:00,41.0,22.0,30.23,SE,135,6.0,9.0,47,-99.99,,,-99.99,,2013-04-02 20:03:00,
2013-04-02 15:13:00,41.0,21.0,30.23,NE,45,3.0,8.0,45,-99.99,,,-99.99,,2013-04-02 20:13:00,
2013-04-02 15:22:00,41.0,21.0,30.23,NE,45,3.0,8.0,45,-99.99,,,-99.99,,2013-04-02 20:22:00,
2013-04-02 15:30:00,43.0,20.0,30.21,SSE,155,5.0,8.0,39,-99.99,,,-99.99,,2013-04-02 20:30:00,
2013-04-02 15:33:00,41.0,21.0,30.22,SW,225,2.0,6.0,45,-99.99,,,-99.99,,2013-04-02 20:33:00,
2013-04-02 15:44:00,42.0,21.0,30.22,SE,140,2.0,7.0,43,-99.99,,,-99.99,,2013-04-02 20:44:00,
2013-04-02 15:53:00,42.0,21.0,30.22,SE,140,2.0,7.0,43,-99.99,,,-99.99,,2013-04-02 20:53:00,
2013-04-02 16:04:00,42.0,20.0,30.21,SE,135,3.0,7.0,40,-99.99,,,-99.99,,2013-04-02 21:04:00,
2013-04-02 16:13:00,43.0,20.0,30.21,SSE,155,5.0,8.0,39,-99.99,,,-99.99,,2013-04-02 21:13:00,
2013-04-02 16:23:00,43.0,20.0,30.21,SSE,155,5.0,8.0,39,-99.99,,,-99.99,,2013-04-02 21:23:00,
2013-04-02 16:44:00,43.0,19.0,30.21,SE,145,5.0,8.0,38,-99.99,,,-99.99,,2013-04-02 21:44:00,
2013-04-02 16:55:00,43.0,19.0,30.21,SE,145,5.0,8.0,38,-99.99,,,-99.99,,2013-04-02 21:55:00,
2013-04-02 17:04:00,44.0,21.0,30.20,ESE,105,5.0,8.0,39,-99.99,,,-99.99,,2013-04-02 22:04:00,
2013-04-02 17:14:00,44.0,21.0,30.20,SE,135,3.0,9.0,39,-99.99,,,-99.99,,2013-04-02 22:14:00,
2013-04-02 17:24:00,44.0,21.0,30.20,SE,135,3.0,9.0,39,-99.99,,,-99.99,,2013-04-02 22:24:00,
2013-04-02 17:33:00,45.0,20.0,30.20,SSW,205,5.0,7.0,37,-99.99,,,-99.99,,2013-04-02 22:33:00,
2013-04-02 17:43:00,45.0,20.0,30.19,East,95,3.0,8.0,37,-99.99,,,-99.99,,2013-04-02 22:43:00,
2013-04-02 17:53:00,45.0,20.0,30.19,East,95,3.0,8.0,37,-99.99,,,-99.99,,2013-04-02 22:53:00,
2013-04-02 18:03:00,46.0,22.0,30.20,SW,220,4.0,9.0,39,-99.99,,,-99.99,,2013-04-02 23:03:00,
2013-04-02 18:13:00,46.0,20.0,30.20,SE,135,4.0,10.0,36,-99.99,,,-99.99,,2013-04-02 23:13:00,
2013-04-02 18:23:00,46.0,20.0,30.20,SE,135,4.0,10.0,36,-99.99,,,-99.99,,2013-04-02 23:23:00,
2013-04-02 18:35:00,46.0,23.0,30.19,SSE,150,3.0,5.0,40,-99.99,,,-99.99,,2013-04-02 23:35:00,
2013-04-02 18:43:00,46.0,21.0,30.20,SSW,195,5.0,7.0,37,-99.99,,,-99.99,,2013-04-02 23:43:00,
2013-04-02 18:52:00,46.0,21.0,30.20,SSW,195,5.0,7.0,37,-99.99,,,-99.99,,2013-04-02 23:52:00,
2013-04-02 19:04:00,45.0,23.0,30.19,SSW,210,5.0,8.0,41,-99.99,,,-99.99,,2013-04-03 00:04:00,
2013-04-02 19:13:00,44.0,24.0,30.19,SSW,210,7.0,12.0,44,-99.99,,,-99.99,,2013-04-03 00:13:00,
2013-04-02 19:24:00,44.0,24.0,30.19,SSW,210,7.0,12.0,44,-99.99,,,-99.99,,2013-04-03 00:24:00,
2013-04-02 19:33:00,44.0,24.0,30.19,South,190,5.0,9.0,46,-99.99,,,-99.99,,2013-04-03 00:33:00,
2013-04-02 19:46:00,43.0,24.0,30.18,SSW,195,4.0,7.0,46,-99.99,,,-99.99,,2013-04-03 00:46:00,
2013-04-02 19:53:00,43.0,24.0,30.18,SSW,195,4.0,7.0,46,-99.99,,,-99.99,,2013-04-03 00:53:00,
2013-04-02 20:03:00,42.0,24.0,30.18,SSE,165,3.0,5.0,47,-99.99,,,-99.99,,2013-04-03 01:03:00,
2013-04-02 20:12:00,42.0,24.0,30.18,SSE,165,3.0,4.0,47,-99.99,,,-99.99,,2013-04-03 01:12:00,
2013-04-02 20:22:00,42.0,24.0,30.18,SSE,165,3.0,4.0,47,-99.99,,,-99.99,,2013-04-03 01:22:00,
2013-04-02 20:33:00,42.0,23.0,30.19,SSE,165,2.0,3.0,46,-99.99,,,-99.99,,2013-04-03 01:33:00,
2013-04-02 20:42:00,40.0,26.0,30.19,SSE,160,1.0,2.0,59,-99.99,,,-99.99,,2013-04-03 01:42:00,
2013-04-02 20:53:00,40.0,26.0,30.19,SSE,160,1.0,2.0,59,-99.99,,,-99.99,,2013-04-03 01:53:00,
2013-04-02 21:03:00,40.0,22.0,30.19,SSE,165,1.0,2.0,48,-99.99,,,-99.99,,2013-04-03 02:03:00,
2013-04-02 21:13:00,40.0,22.0,30.19,SSE,150,1.0,2.0,48,-99.99,,,-99.99,,2013-04-03 02:13:00,
2013-04-02 21:24:00,40.0,22.0,30.19,SSE,150,1.0,2.0,48,-99.99,,,-99.99,,2013-04-03 02:24:00,
2013-04-02 21:34:00,40.0,24.0,30.19,SSW,195,2.0,2.0,52,-99.99,,,-99.99,,2013-04-03 02:34:00,
2013-04-02 21:43:00,39.0,26.0,30.20,SSW,195,1.0,2.0,59,-99.99,,,-99.99,,2013-04-03 02:43:00,
2013-04-02 21:52:00,39.0,26.0,30.20,SSW,195,1.0,2.0,59,-99.99,,,-99.99,,2013-04-03 02:52:00,
2013-04-02 22:05:00,37.0,26.0,30.20,SSW,210,0.0,1.0,64,-99.99,,,-99.99,,2013-04-03 03:05:00,
2013-04-02 22:14:00,37.0,23.0,30.20,ESE,120,1.0,2.0,57,-99.99,,,-99.99,,2013-04-03 03:14:00,
2013-04-02 22:23:00,37.0,23.0,30.20,ESE,120,1.0,2.0,57,-99.99,,,-99.99,,2013-04-03 03:23:00,
2013-04-02 22:37:00,37.0,24.0,30.19,East,95,1.0,2.0,59,-99.99,,,-99.99,,2013-04-03 03:37:00,
2013-04-02 22:43:00,36.0,24.0,30.20,ESE,115,2.0,2.0,60,-99.99,,,-99.99,,2013-04-03 03:43:00,
2013-04-02 22:53:00,36.0,24.0,30.20,ESE,115,2.0,2.0,60,-99.99,,,-99.99,,2013-04-03 03:53:00,
2013-04-02 23:03:00,37.0,24.0,30.20,SE,130,1.0,2.0,58,-99.99,,,-99.99,,2013-04-03 04:03:00,
2013-04-02 23:12:00,38.0,23.0,30.20,SE,135,2.0,2.0,54,-99.99,,,-99.99,,2013-04-03 04:12:00,
2013-04-02 23:23:00,38.0,23.0,30.20,SE,135,2.0,2.0,54,-99.99,,,-99.99,,2013-04-03 04:23:00,
2013-04-02 23:33:00,37.0,23.0,30.21,East,90,2.0,4.0,56,-99.99,,,-99.99,,2013-04-03 04:33:00,
2013-04-02 23:43:00,39.0,23.0,30.21,North,0,0.0,3.0,52,-99.99,,,-99.99,,2013-04-03 04:43:00,
2013-04-02 23:53:00,39.0,23.0,30.21,North,0,0.0,3.0,52,-99.99,,,-99.99,,2013-04-03 04:53:00,